createdAt,value
2018-11-25T00:01:10.583Z,7.74
2018-11-25T00:03:39.714Z,7.77
2018-11-25T00:06:08.943Z,7.67
2018-11-25T00:08:38.132Z,7.45
2018-11-25T00:11:07.839Z,7.59
2018-11-25T00:13:36.977Z,7.72
2018-11-25T00:16:06.286Z,7.62
2018-11-25T00:18:35.451Z,7.86
2018-11-25T00:21:04.693Z,7.60
2018-11-25T00:23:33.964Z,7.54
2018-11-25T00:26:03.180Z,7.65
2018-11-25T00:28:32.330Z,7.50
2018-11-25T00:31:04.651Z,7.65
2018-11-25T00:33:30.904Z,7.60
2018-11-25T00:36:00.017Z,7.72
2018-11-25T00:38:29.160Z,7.52
2018-11-25T00:40:58.314Z,7.67
2018-11-25T00:43:27.510Z,7.86
2018-11-25T00:45:56.653Z,7.93
2018-11-25T00:48:25.842Z,8.03
2018-11-25T00:50:55.004Z,7.86
2018-11-25T00:53:24.194Z,7.71
2018-11-25T00:55:53.531Z,7.97
2018-11-25T00:58:22.714Z,8.08
2018-11-25T01:00:51.914Z,7.91
2018-11-25T01:03:21.164Z,7.88
2018-11-25T01:05:50.335Z,7.66
2018-11-25T01:08:19.495Z,7.72
2018-11-25T01:10:48.641Z,7.68
2018-11-25T01:13:17.917Z,7.58
2018-11-25T01:15:47.006Z,7.56
2018-11-25T01:18:16.254Z,7.58
2018-11-25T01:20:45.416Z,7.68
2018-11-25T01:23:14.755Z,7.39
2018-11-25T01:25:44.062Z,7.41
2018-11-25T01:28:14.153Z,7.36
2018-11-25T01:30:43.423Z,7.69
2018-11-25T01:33:12.802Z,7.51
2018-11-25T01:35:42.784Z,7.28
2018-11-25T01:38:12.137Z,7.49
2018-11-25T01:40:41.141Z,7.77
2018-11-25T01:43:10.543Z,7.63
2018-11-25T01:45:39.843Z,7.54
2018-11-25T01:48:09.239Z,7.44
2018-11-25T01:50:38.591Z,7.39
2018-11-25T01:53:07.845Z,7.53
2018-11-25T01:55:37.215Z,7.27
2018-11-25T01:58:06.336Z,7.63
2018-11-25T02:00:35.731Z,7.67
2018-11-25T02:03:05.036Z,7.70
2018-11-25T02:05:34.451Z,7.61
2018-11-25T02:08:03.623Z,7.35
2018-11-25T02:10:33.060Z,7.37
2018-11-25T02:13:02.445Z,7.55
2018-11-25T02:15:31.739Z,7.72
2018-11-25T02:18:00.950Z,7.79
2018-11-25T02:20:30.285Z,7.88
2018-11-25T02:22:59.608Z,7.87
2018-11-25T02:25:28.771Z,7.62
2018-11-25T02:27:58.036Z,7.88
2018-11-25T02:30:27.360Z,7.83
2018-11-25T02:32:56.643Z,7.64
2018-11-25T02:35:26.058Z,7.49
2018-11-25T02:37:55.309Z,7.58
2018-11-25T02:40:24.541Z,7.83
2018-11-25T02:42:54.111Z,7.93
2018-11-25T02:45:23.385Z,7.86
2018-11-25T02:47:53.077Z,7.69
2018-11-25T02:50:28.620Z,7.60
2018-11-25T02:52:59.279Z,7.79
2018-11-25T02:55:28.662Z,7.90
2018-11-25T02:57:57.962Z,8.00
2018-11-25T03:00:27.135Z,7.91
2018-11-25T03:02:56.386Z,7.92
2018-11-25T03:05:25.748Z,7.62
2018-11-25T03:07:55.236Z,7.46
2018-11-25T03:10:24.667Z,7.36
2018-11-25T03:12:53.912Z,7.23
2018-11-25T03:15:23.268Z,7.38
2018-11-25T03:17:52.522Z,7.36
2018-11-25T03:20:21.772Z,7.35
2018-11-25T03:22:51.115Z,7.35
2018-11-25T03:25:21.059Z,7.36
2018-11-25T03:27:50.499Z,7.39
2018-11-25T03:30:20.582Z,7.67
2018-11-25T03:32:50.682Z,7.62
2018-11-25T03:35:20.132Z,7.60
2018-11-25T03:37:49.424Z,7.59
2018-11-25T03:40:19.235Z,7.45
2018-11-25T03:42:48.472Z,7.44
2018-11-25T03:45:24.595Z,7.68
2018-11-25T03:47:53.857Z,7.36
2018-11-25T03:50:23.197Z,7.16
2018-11-25T03:52:52.461Z,7.29
2018-11-25T03:55:21.692Z,6.97
2018-11-25T03:57:50.974Z,6.64
2018-11-25T04:00:21.221Z,7.28
2018-11-25T04:02:51.424Z,7.43
2018-11-25T04:05:20.727Z,7.65
2018-11-25T04:07:50.043Z,7.49
2018-11-25T04:10:19.836Z,7.55
2018-11-25T04:12:49.167Z,7.54
2018-11-25T04:15:19.010Z,7.45
2018-11-25T04:17:48.683Z,7.20
2018-11-25T04:20:20.667Z,7.15
2018-11-25T04:22:50.351Z,7.21
2018-11-25T04:25:19.582Z,6.74
2018-11-25T04:27:48.842Z,6.57
2018-11-25T04:30:18.731Z,6.82
2018-11-25T04:32:48.763Z,6.75
2018-11-25T04:35:18.031Z,6.94
2018-11-25T04:37:47.370Z,7.07
2018-11-25T04:40:17.164Z,7.42
2018-11-25T04:42:46.503Z,7.35
2018-11-25T04:45:16.232Z,7.10
2018-11-25T04:47:45.997Z,6.97
2018-11-25T04:50:18.833Z,6.99
2018-11-25T04:52:48.209Z,7.36
2018-11-25T04:55:17.469Z,7.43
2018-11-25T04:57:51.504Z,7.44
2018-11-25T05:00:20.696Z,7.28
2018-11-25T05:02:50.421Z,7.63
2018-11-25T05:05:19.368Z,7.73
2018-11-25T05:07:48.347Z,7.73
2018-11-25T05:10:18.049Z,7.63
2018-11-25T05:12:47.023Z,7.79
2018-11-25T05:15:18.070Z,7.79
2018-11-25T05:17:47.082Z,7.74
2018-11-25T05:20:16.717Z,7.48
2018-11-25T05:22:45.703Z,7.18
2018-11-25T05:25:15.686Z,7.11
2018-11-25T05:27:44.633Z,7.38
2018-11-25T05:30:14.693Z,7.48
2018-11-25T05:32:43.720Z,7.62
2018-11-25T05:35:13.951Z,7.46
2018-11-25T05:37:42.850Z,7.62
2018-11-25T05:40:13.605Z,7.67
2018-11-25T05:42:42.567Z,7.67
2018-11-25T05:45:14.442Z,7.75
2018-11-25T05:47:43.369Z,7.31
2018-11-25T05:50:14.308Z,7.23
2018-11-25T05:52:43.230Z,7.36
2018-11-25T05:55:12.864Z,7.15
2018-11-25T05:57:41.870Z,7.12
2018-11-25T06:00:18.141Z,7.02
2018-11-25T06:02:47.085Z,6.79
2018-11-25T06:05:16.040Z,6.93
2018-11-25T06:07:44.977Z,7.04
2018-11-25T06:10:14.401Z,7.36
2018-11-25T06:12:43.395Z,7.35
2018-11-25T06:15:14.220Z,7.38
2018-11-25T06:17:43.209Z,7.39
2018-11-25T06:20:16.165Z,7.51
2018-11-25T06:22:45.358Z,7.58
2018-11-25T06:25:15.510Z,7.29
2018-11-25T06:27:44.423Z,7.29
2018-11-25T06:30:14.754Z,7.56
2018-11-25T06:32:43.683Z,7.58
2018-11-25T06:35:14.929Z,7.46
2018-11-25T06:37:43.882Z,7.67
2018-11-25T06:40:14.603Z,7.37
2018-11-25T06:42:43.525Z,7.52
2018-11-25T06:45:16.725Z,7.25
2018-11-25T06:47:45.643Z,6.97
2018-11-25T06:50:14.609Z,7.50
2018-11-25T06:52:43.571Z,7.64
2018-11-25T06:55:13.385Z,7.60
2018-11-25T06:57:42.296Z,7.57
2018-11-25T07:00:15.470Z,7.56
2018-11-25T07:02:44.394Z,7.58
2018-11-25T07:05:13.369Z,7.06
2018-11-25T07:07:42.318Z,6.98
2018-11-25T07:10:18.158Z,7.31
2018-11-25T07:12:47.467Z,7.42
2018-11-25T07:15:17.408Z,7.40
2018-11-25T07:17:46.418Z,7.63
2018-11-25T07:20:16.287Z,7.84
2018-11-25T07:22:45.258Z,7.95
2018-11-25T07:25:20.203Z,7.99
2018-11-25T07:27:49.151Z,7.80
2018-11-25T07:30:27.035Z,7.80
2018-11-25T07:32:56.052Z,7.65
2018-11-25T07:35:27.063Z,7.76
2018-11-25T07:37:55.976Z,7.58
2018-11-25T07:40:25.650Z,7.65
2018-11-25T07:42:54.635Z,8.04
2018-11-25T07:45:30.125Z,8.10
2018-11-25T07:47:54.369Z,8.17
2018-11-25T07:50:23.347Z,8.19
2018-11-25T07:52:52.715Z,8.29
2018-11-25T07:55:23.767Z,8.30
2018-11-25T07:57:53.927Z,8.39
2018-11-25T08:00:24.005Z,8.44
2018-11-25T08:02:53.161Z,8.40
2018-11-25T08:05:26.835Z,8.53
2018-11-25T08:07:55.836Z,8.55
2018-11-25T08:10:24.801Z,8.50
2018-11-25T08:12:53.790Z,8.36
2018-11-25T08:15:22.718Z,8.36
2018-11-25T08:17:51.688Z,8.43
2018-11-25T08:20:21.505Z,8.51
2018-11-25T08:22:50.587Z,8.60
2018-11-25T08:25:21.377Z,8.69
2018-11-25T08:27:50.343Z,8.73
2018-11-25T08:30:21.083Z,8.85
2018-11-25T08:32:50.184Z,8.74
2018-11-25T08:35:19.387Z,8.56
2018-11-25T08:37:48.370Z,8.32
2018-11-25T08:40:18.371Z,8.26
2018-11-25T08:42:47.332Z,8.29
2018-11-25T08:45:16.427Z,8.46
2018-11-25T08:47:45.402Z,8.51
2018-11-25T08:50:16.075Z,8.50
2018-11-25T08:52:46.839Z,8.50
2018-11-25T08:55:16.816Z,8.83
2018-11-25T08:57:45.828Z,8.70
2018-11-25T09:00:15.738Z,8.65
2018-11-25T09:02:44.717Z,8.58
2018-11-25T09:05:14.593Z,8.33
2018-11-25T09:07:43.620Z,8.61
2018-11-25T09:10:14.492Z,8.34
2018-11-25T09:12:43.835Z,8.09
2018-11-25T09:15:14.943Z,8.42
2018-11-25T09:17:43.991Z,8.24
2018-11-25T09:20:14.170Z,8.24
2018-11-25T09:22:43.129Z,8.38
2018-11-25T09:25:13.400Z,8.40
2018-11-25T09:27:42.344Z,8.21
2018-11-25T09:30:16.827Z,8.51
2018-11-25T09:32:45.746Z,8.44
2018-11-25T09:35:14.713Z,8.69
2018-11-25T09:37:43.634Z,8.78
2018-11-25T09:40:13.918Z,8.91
2018-11-25T09:42:42.857Z,9.05
2018-11-25T09:45:19.287Z,8.98
2018-11-25T09:47:48.409Z,9.19
2018-11-25T09:50:21.338Z,9.29
2018-11-25T09:52:50.248Z,9.25
2018-11-25T09:55:20.059Z,9.39
2018-11-25T09:57:50.238Z,9.27
2018-11-25T10:00:23.169Z,9.03
2018-11-25T10:02:52.129Z,8.86
2018-11-25T10:05:21.106Z,8.72
2018-11-25T10:07:50.067Z,8.48
2018-11-25T10:10:20.882Z,8.24
2018-11-25T10:12:49.896Z,8.19
2018-11-25T10:15:20.799Z,8.11
2018-11-25T10:17:49.742Z,8.21
2018-11-25T10:20:21.762Z,8.29
2018-11-25T10:22:50.695Z,8.40
2018-11-25T10:25:19.690Z,8.56
2018-11-25T10:27:48.678Z,8.84
2018-11-25T10:30:20.598Z,8.98
2018-11-25T10:32:50.809Z,9.04
2018-11-25T10:35:19.767Z,9.19
2018-11-25T10:37:48.718Z,9.32
2018-11-25T10:40:18.833Z,9.53
2018-11-25T10:42:47.761Z,9.13
2018-11-25T10:45:19.411Z,9.22
2018-11-25T10:47:48.327Z,9.49
2018-11-25T10:50:18.334Z,9.66
2018-11-25T10:52:47.335Z,9.68
2018-11-25T10:55:17.292Z,9.76
2018-11-25T10:57:47.106Z,9.55
2018-11-25T11:00:26.025Z,9.47
2018-11-25T11:03:00.069Z,9.54
2018-11-25T11:05:34.226Z,9.42
2018-11-25T11:08:03.139Z,9.45
2018-11-25T11:10:32.057Z,9.66
2018-11-25T11:13:01.005Z,9.52
2018-11-25T11:15:29.922Z,9.40
2018-11-25T11:17:58.863Z,9.22
2018-11-25T11:20:27.762Z,9.18
2018-11-25T11:22:56.700Z,9.25
2018-11-25T11:25:25.613Z,9.21
2018-11-25T11:27:54.619Z,9.19
2018-11-25T11:30:23.517Z,9.04
2018-11-25T11:32:52.487Z,9.10
2018-11-25T11:35:21.409Z,9.15
2018-11-25T11:37:50.356Z,9.19
2018-11-25T11:41:22.127Z,9.42
2018-11-25T11:43:51.018Z,9.43
2018-11-25T11:46:19.934Z,9.42
2018-11-25T11:48:48.887Z,9.39
2018-11-25T11:51:25.303Z,9.37
2018-11-25T11:53:46.841Z,9.40
2018-11-25T11:56:15.776Z,9.42
2018-11-25T11:58:44.744Z,9.52
2018-11-25T12:01:13.666Z,9.47
2018-11-25T12:03:42.656Z,9.54
2018-11-25T12:06:11.597Z,9.67
2018-11-25T12:08:40.566Z,9.57
2018-11-25T12:11:09.504Z,9.63
2018-11-25T12:13:38.484Z,10.18
2018-11-25T12:16:07.433Z,10.22
2018-11-25T12:18:36.415Z,10.51
2018-11-25T12:21:05.337Z,10.29
2018-11-25T12:23:34.335Z,10.62
2018-11-25T12:26:03.319Z,10.52
2018-11-25T12:28:32.310Z,10.39
2018-11-25T12:31:01.278Z,10.48
2018-11-25T12:33:30.274Z,10.70
2018-11-25T12:35:59.219Z,11.12
2018-11-25T12:38:28.217Z,11.40
2018-11-25T12:40:57.188Z,10.78
2018-11-25T12:43:26.195Z,10.58
2018-11-25T12:45:55.120Z,10.66
2018-11-25T12:48:24.096Z,10.72
2018-11-25T12:50:53.074Z,10.87
2018-11-25T12:53:22.025Z,10.90
2018-11-25T12:55:50.987Z,10.97
2018-11-25T12:58:19.964Z,11.43
2018-11-25T13:00:49.866Z,11.15
2018-11-25T13:03:19.297Z,11.27
2018-11-25T13:05:48.263Z,11.59
2018-11-25T13:08:17.210Z,11.53
2018-11-25T13:10:46.204Z,11.71
2018-11-25T13:13:15.155Z,11.53
2018-11-25T13:15:44.209Z,11.86
2018-11-25T13:18:13.163Z,11.64
2018-11-25T13:20:42.127Z,11.73
2018-11-25T13:23:11.083Z,11.93
2018-11-25T13:25:40.123Z,11.80
2018-11-25T13:28:09.126Z,11.97
2018-11-25T13:30:38.111Z,12.10
2018-11-25T13:33:07.944Z,12.05
2018-11-25T13:35:38.588Z,12.11
2018-11-25T13:38:08.059Z,11.69
2018-11-25T13:40:37.039Z,11.98
2018-11-25T13:43:06.283Z,11.99
2018-11-25T13:45:35.267Z,12.01
2018-11-25T13:48:04.204Z,11.73
2018-11-25T13:50:33.215Z,11.83
2018-11-25T13:53:02.174Z,11.91
2018-11-25T13:55:31.187Z,11.47
2018-11-25T13:58:00.120Z,11.28
2018-11-25T14:00:36.116Z,11.50
2018-11-25T14:03:07.411Z,11.50
2018-11-25T14:05:36.423Z,11.70
2018-11-25T14:08:05.725Z,11.69
2018-11-25T14:10:35.593Z,10.72
2018-11-25T14:13:04.534Z,10.53
2018-11-25T14:15:33.519Z,10.72
2018-11-25T14:18:02.481Z,10.81
2018-11-25T14:20:31.458Z,11.29
2018-11-25T14:23:00.415Z,11.29
2018-11-25T14:25:29.415Z,10.95
2018-11-25T14:28:02.247Z,11.30
2018-11-25T14:30:32.100Z,11.52
2018-11-25T14:33:01.072Z,11.66
2018-11-25T14:35:30.143Z,11.51
2018-11-25T14:37:59.086Z,10.86
2018-11-25T14:40:28.094Z,11.32
2018-11-25T14:42:57.007Z,11.39
2018-11-25T14:45:25.999Z,11.20
2018-11-25T14:47:54.950Z,10.84
2018-11-25T14:50:23.943Z,11.11
2018-11-25T14:52:53.503Z,11.31
2018-11-25T14:55:22.514Z,11.42
2018-11-25T14:57:51.440Z,11.46
2018-11-25T15:00:21.365Z,11.50
2018-11-25T15:02:57.878Z,11.44
2018-11-25T15:05:30.605Z,11.31
2018-11-25T15:07:59.526Z,11.43
2018-11-25T15:10:28.483Z,11.17
2018-11-25T15:12:57.441Z,11.11
2018-11-25T15:15:26.419Z,11.27
2018-11-25T15:17:55.340Z,11.08
2018-11-25T15:20:24.323Z,11.14
2018-11-25T15:22:56.191Z,10.75
2018-11-25T15:25:28.524Z,10.69
2018-11-25T15:27:58.143Z,10.94
2018-11-25T15:30:26.483Z,11.06
2018-11-25T15:32:55.423Z,11.08
2018-11-25T15:35:24.378Z,11.03
2018-11-25T15:37:54.139Z,11.03
2018-11-25T15:40:25.374Z,11.08
2018-11-25T15:42:54.290Z,11.04
2018-11-25T15:45:23.248Z,11.00
2018-11-25T15:47:55.764Z,10.98
2018-11-25T15:50:26.336Z,10.97
2018-11-25T15:52:55.550Z,10.92
2018-11-25T15:55:24.655Z,11.02
2018-11-25T15:57:53.586Z,11.05
2018-11-25T16:00:23.744Z,11.06
2018-11-25T16:02:52.689Z,10.91
2018-11-25T16:05:25.010Z,10.94
2018-11-25T16:07:53.941Z,10.83
2018-11-25T16:10:22.875Z,10.58
2018-11-25T16:12:52.581Z,10.62
2018-11-25T16:15:22.700Z,10.43
2018-11-25T16:17:51.705Z,10.32
2018-11-25T16:20:24.779Z,10.23
2018-11-25T16:22:59.002Z,10.40
2018-11-25T16:25:31.646Z,10.56
2018-11-25T16:28:23.996Z,10.57
2018-11-25T16:30:52.975Z,10.54
2018-11-25T16:33:21.904Z,10.43
2018-11-25T16:35:50.872Z,10.22
2018-11-25T16:38:19.832Z,10.25
2018-11-25T16:40:48.764Z,10.31
2018-11-25T16:43:17.754Z,9.94
2018-11-25T16:45:46.692Z,9.99
2018-11-25T16:48:15.655Z,9.84
2018-11-25T16:50:44.575Z,9.73
2018-11-25T16:53:13.598Z,9.84
2018-11-25T16:55:42.557Z,9.76
2018-11-25T16:58:11.563Z,9.83
2018-11-25T17:00:40.522Z,9.93
2018-11-25T17:03:09.503Z,9.79
2018-11-25T17:05:40.343Z,9.66
2018-11-25T17:08:20.532Z,9.91
2018-11-25T17:10:49.463Z,9.64
2018-11-25T17:13:18.553Z,9.84
2018-11-25T17:15:47.523Z,9.89
2018-11-25T17:18:16.505Z,9.66
2018-11-25T17:20:45.610Z,9.60
2018-11-25T17:23:14.661Z,9.43
2018-11-25T17:25:43.593Z,9.27
2018-11-25T17:28:12.551Z,9.75
2018-11-25T17:30:41.528Z,9.70
2018-11-25T17:33:10.682Z,9.76
2018-11-25T17:35:39.655Z,9.91
2018-11-25T17:38:08.644Z,10.07
2018-11-25T17:40:37.616Z,10.04
2018-11-25T17:43:08.079Z,10.00
2018-11-25T17:45:37.054Z,9.91
2018-11-25T17:48:06.032Z,10.13
2018-11-25T17:50:35.126Z,10.14
2018-11-25T17:53:04.091Z,10.21
2018-11-25T17:55:33.505Z,10.26
2018-11-25T17:58:02.451Z,10.29
2018-11-25T18:00:42.821Z,10.00
2018-11-25T18:03:18.499Z,10.10
2018-11-25T18:05:47.456Z,10.23
2018-11-25T18:08:16.434Z,10.31
2018-11-25T18:10:45.468Z,10.19
2018-11-25T18:13:14.710Z,10.18
2018-11-25T18:15:43.691Z,9.68
2018-11-25T18:18:14.484Z,10.04
2018-11-25T18:20:49.364Z,9.91
2018-11-25T18:23:18.403Z,10.07
2018-11-25T18:25:47.375Z,10.16
2018-11-25T18:28:16.355Z,9.94
2018-11-25T18:30:45.418Z,9.53
2018-11-25T18:33:14.359Z,9.61
2018-11-25T18:35:43.329Z,9.70
2018-11-25T18:38:12.242Z,9.91
2018-11-25T18:40:41.231Z,9.90
2018-11-25T18:43:10.175Z,9.82
2018-11-25T18:45:39.155Z,10.09
2018-11-25T18:48:09.908Z,10.19
2018-11-25T18:50:38.863Z,10.21
2018-11-25T18:53:09.312Z,10.18
2018-11-25T18:55:36.878Z,10.16
2018-11-25T18:58:05.970Z,10.27
2018-11-25T19:00:38.903Z,10.25
2018-11-25T19:03:07.844Z,10.34
2018-11-25T19:05:36.816Z,10.30
2018-11-25T19:08:06.265Z,10.11
2018-11-25T19:10:35.284Z,9.83
2018-11-25T19:13:04.191Z,9.39
2018-11-25T19:15:33.166Z,9.02
2018-11-25T19:18:02.716Z,8.96
2018-11-25T19:20:31.696Z,8.90
2018-11-25T19:23:00.878Z,8.79
2018-11-25T19:25:30.092Z,8.69
2018-11-25T19:27:59.019Z,8.62
2018-11-25T19:30:28.141Z,8.55
2018-11-25T19:32:57.043Z,8.53
2018-11-25T19:35:26.115Z,8.71
2018-11-25T19:37:55.025Z,8.72
2018-11-25T19:40:26.272Z,8.55
2018-11-25T19:42:55.372Z,8.61
2018-11-25T19:45:25.575Z,8.53
2018-11-25T19:47:55.316Z,8.56
2018-11-25T19:50:26.736Z,8.62
2018-11-25T19:52:55.816Z,8.69
2018-11-25T19:55:24.731Z,8.47
2018-11-25T19:57:53.743Z,8.47
2018-11-25T20:00:25.887Z,8.53
2018-11-25T20:02:54.888Z,8.33
2018-11-25T20:05:23.860Z,8.42
2018-11-25T20:07:52.979Z,8.36
2018-11-25T20:10:25.020Z,8.29
2018-11-25T20:12:58.605Z,8.57
2018-11-25T20:15:27.563Z,8.90
2018-11-25T20:17:56.516Z,9.12
2018-11-25T20:20:26.835Z,9.30
2018-11-25T20:22:56.353Z,9.25
2018-11-25T20:25:25.333Z,9.32
2018-11-25T20:27:55.805Z,9.24
2018-11-25T20:30:28.003Z,9.17
2018-11-25T20:33:02.192Z,8.94
2018-11-25T20:35:31.821Z,8.87
2018-11-25T20:38:05.822Z,8.61
2018-11-25T20:40:34.899Z,8.58
2018-11-25T20:43:03.909Z,8.93
2018-11-25T20:45:38.990Z,9.24
2018-11-25T20:48:07.247Z,9.36
2018-11-25T20:50:36.279Z,9.38
2018-11-25T20:53:10.702Z,9.43
2018-11-25T20:55:39.654Z,9.34
2018-11-25T20:58:09.697Z,9.32
2018-11-25T21:00:39.880Z,9.39
2018-11-25T21:03:10.157Z,9.42
2018-11-25T21:05:39.304Z,9.25
2018-11-25T21:08:08.402Z,9.22
2018-11-25T21:10:38.235Z,9.03
2018-11-25T21:13:07.890Z,9.15
2018-11-25T21:15:36.931Z,8.70
2018-11-25T21:18:06.277Z,8.98
2018-11-25T21:20:35.252Z,8.70
2018-11-25T21:23:04.276Z,8.60
2018-11-25T21:25:33.243Z,8.72
2018-11-25T21:28:03.368Z,8.78
2018-11-25T21:30:32.364Z,8.47
2018-11-25T21:33:01.353Z,8.26
2018-11-25T21:35:31.711Z,8.03
2018-11-25T21:38:00.820Z,8.01
2018-11-25T21:40:29.892Z,8.10
2018-11-25T21:42:58.840Z,8.22
2018-11-25T21:45:27.840Z,8.51
2018-11-25T21:47:58.037Z,8.73
2018-11-25T21:50:27.767Z,8.70
2018-11-25T21:52:57.248Z,8.57
2018-11-25T21:55:26.345Z,8.86
2018-11-25T21:57:55.280Z,8.92
2018-11-25T22:00:25.299Z,8.87
2018-11-25T22:02:54.665Z,8.74
2018-11-25T22:05:24.986Z,8.67
2018-11-25T22:07:52.703Z,8.36
2018-11-25T22:10:22.750Z,8.40
2018-11-25T22:12:51.323Z,8.59
2018-11-25T22:15:21.600Z,8.52
2018-11-25T22:17:50.606Z,8.19
2018-11-25T22:20:19.695Z,8.69
2018-11-25T22:22:48.664Z,8.93
2018-11-25T22:25:18.963Z,8.62
2018-11-25T22:27:47.982Z,8.99
2018-11-25T22:30:20.088Z,9.10
2018-11-25T22:32:49.042Z,9.10
2018-11-25T22:35:19.070Z,8.84
2018-11-25T22:37:48.005Z,9.04
2018-11-25T22:40:17.975Z,8.96
2018-11-25T22:42:48.204Z,9.05
2018-11-25T22:45:20.370Z,8.82
2018-11-25T22:47:49.322Z,8.63
2018-11-25T22:50:20.206Z,8.55
2018-11-25T22:52:49.364Z,8.72
2018-11-25T22:55:22.562Z,8.71
2018-11-25T22:57:51.631Z,8.43
2018-11-25T23:00:22.944Z,8.29
2018-11-25T23:02:52.408Z,8.18
2018-11-25T23:05:32.311Z,8.27
2018-11-25T23:08:01.339Z,8.31
2018-11-25T23:10:30.315Z,8.11
2018-11-25T23:12:59.239Z,8.21
2018-11-25T23:15:28.461Z,7.98
2018-11-25T23:17:57.360Z,8.01
2018-11-25T23:20:26.474Z,8.02
2018-11-25T23:22:55.400Z,8.08
2018-11-25T23:25:24.392Z,7.95
2018-11-25T23:27:53.381Z,7.88
2018-11-25T23:30:22.892Z,7.88
2018-11-25T23:32:53.823Z,8.13
2018-11-25T23:35:28.850Z,8.06
2018-11-25T23:37:58.963Z,8.05
2018-11-25T23:40:28.590Z,8.16
2018-11-25T23:42:57.966Z,8.26
2018-11-25T23:45:27.614Z,8.37
2018-11-25T23:47:58.879Z,8.70
2018-11-25T23:50:28.186Z,8.53
2018-11-25T23:52:57.661Z,8.58
2018-11-25T23:55:30.558Z,8.68
